Latest Weather Observations for Oenpelli Airport

IDD60801

Issued at 9:05 pm CST Wednesday 23 July 2014 (issued every 30 minutes, with the page automatically refreshed every 10 minutes)

About weather observations | Map of weather stations | Latest weather observations for NT | Other Formats
Station Details ID: 014310 Name: OENPELLI AIRPORT Lat: -12.33 Lon: 133.01 Height: 7.5 m
Data from the previous 72 hours. | See also: Recent months for locations in Northern Territory
Date/Time
CST
Temp
°C
App
Temp
°C
Dew
Point
Rel
Hum
%
Delta-T
°C
Wind Press
QNH
hPa
Press
MSL
hPa
Rain
since 9 am
mm
Dir
 
Spd
km/h
Gust
km/h
Spd
kts
Gust
kts
23/09:00pm 22.9 24.6 16.2 66 4.1 N 2 6 1 3 1013.6 1013.5 0.0
23/08:30pm 23.9 25.0 16.7 64 4.4 N 6 7 3 4 1013.3 1013.2 0.0
23/08:00pm 24.3 25.4 17.1 64 4.5 NNE 7 11 4 6 1012.8 - 0.0
23/07:30pm 23.9 24.9 16.9 65 4.3 NNW 7 9 4 5 1012.3 1012.2 0.0
23/07:00pm 25.9 26.1 13.1 45 7.5 NW 4 6 2 3 1011.7 - 0.0
23/06:30pm 28.3 28.4 12.6 38 9.2 N 4 6 2 3 1011.2 1011.1 0.0
23/06:00pm 30.0 29.2 11.0 31 10.9 NNE 6 7 3 4 1010.9 1010.8 0.0
23/05:30pm 30.9 29.7 9.7 27 12.0 NNE 6 9 3 5 1010.7 1010.6 0.0
23/05:00pm 31.4 30.2 9.6 26 12.3 N 6 11 3 6 1010.5 - 0.0
23/04:30pm 31.3 29.3 10.1 27 12.1 NNE 11 15 6 8 1010.5 1010.4 0.0
23/04:00pm 30.9 29.3 10.3 28 11.8 N 9 17 5 9 1010.5 - 0.0
23/03:30pm 31.3 30.5 11.1 29 11.7 NNE 6 17 3 9 1010.6 1010.5 0.0
23/03:00pm 30.8 29.6 11.7 31 11.1 N 9 15 5 8 1010.9 1010.8 0.0
23/02:30pm 31.0 30.6 12.4 32 11.0 N 6 11 3 6 1011.3 1011.2 0.0
23/02:00pm 29.9 28.8 11.9 33 10.5 ENE 9 15 5 8 1011.8 - 0.0
23/01:30pm 30.0 29.4 12.4 34 10.3 S 7 15 4 8 1012.5 1012.4 0.0
23/01:00pm 28.9 28.2 11.9 35 9.9 SSW 7 15 4 8 1013.1 - 0.0
23/12:30pm 28.4 28.1 12.7 38 9.2 SSE 6 11 3 6 1013.6 1013.5 0.0
23/12:00pm 27.9 27.0 12.7 39 8.9 SE 9 19 5 10 1014.2 1014.1 0.0
23/11:30am 27.6 27.1 12.8 40 8.7 ESE 7 17 4 9 1014.8 1014.7 0.0
23/11:00am 27.2 26.1 13.2 42 8.2 ESE 11 15 6 8 1015.5 - 0.0
23/10:30am 26.5 25.7 12.9 43 7.9 E 9 20 5 11 1015.7 1015.6 0.0
23/10:00am 25.4 24.5 13.6 48 6.9 SE 11 17 6 9 1015.9 - 0.0
23/09:30am 24.8 23.2 14.0 51 6.4 E 15 22 8 12 1015.9 1015.8 0.0
23/09:00am 23.9 22.6 14.9 57 5.4 E 15 20 8 11 1015.9 1015.8 0.0
23/08:30am 22.9 23.0 15.5 63 4.4 E 9 15 5 8 1015.7 1015.6 0.0
23/08:00am 21.6 21.6 15.2 67 3.8 E 9 15 5 8 1015.4 - 0.0
23/07:30am 20.7 20.7 15.3 71 3.2 E 9 13 5 7 1015.3 1015.2 0.0
23/07:00am 19.9 20.4 14.9 73 2.9 E 6 7 3 4 1015.0 - 0.0
23/06:30am 20.0 20.4 14.8 72 3.0 ESE 6 11 3 6 1014.8 1014.7 0.0
23/06:00am 20.4 20.4 14.3 68 3.5 SE 7 11 4 6 1014.4 1014.3 0.0
23/05:30am 20.8 20.5 14.5 67 3.7 SE 9 13 5 7 1014.1 1014.0 0.0
23/05:00am 19.9 20.0 14.5 71 3.1 E 7 9 4 5 1013.9 - 0.0
23/04:30am 20.0 20.2 14.6 71 3.1 E 7 9 4 5 1013.7 1013.6 0.0
23/04:00am 20.4 20.8 15.2 72 3.1 E 7 9 4 5 1013.6 - 0.0
23/03:30am 20.2 20.7 15.6 75 2.7 E 7 9 4 5 1013.7 1013.6 0.0
23/03:00am 19.7 21.1 17.3 86 1.5 E 6 13 3 7 1013.9 1013.8 0.0
23/02:30am 19.2 20.3 16.6 85 1.6 E 6 7 3 4 1014.1 1014.0 0.0
23/02:00am 19.5 21.2 16.3 82 1.9 ENE 2 6 1 3 1014.3 - 0.0
23/01:30am 19.8 22.2 17.0 84 1.7 CALM 0 0 0 0 1014.8 1014.7 0.0
23/01:00am 19.6 21.8 16.4 82 1.9 CALM 0 0 0 0 1014.9 - 0.0
23/12:30am 20.9 22.4 16.7 77 2.5 NE 4 6 2 3 1014.9 1014.8 0.0
23/12:00am 21.5 22.6 16.7 74 2.9 NE 6 9 3 5 1014.9 1014.8 0.0
 
Date/Time
CST
Temp
°C
App
Temp
°C
Dew
Point
Rel
Hum
%
Delta-T
°C
Wind Press
QNH
hPa
Press
MSL
hPa
Rain
since 9 am
mm
Dir
 
Spd
km/h
Gust
km/h
Spd
kts
Gust
kts
22/11:30pm 21.4 22.8 16.4 73 3.0 ENE 4 7 2 4 1015.1 1015.0 0.0
22/11:00pm 21.6 22.8 15.9 70 3.4 NE 4 6 2 3 1015.2 - 0.0
22/10:30pm 20.7 21.7 14.4 67 3.7 E 2 6 1 3 1015.0 1014.9 0.0
22/10:00pm 20.6 22.1 14.7 69 3.5 CALM 0 0 0 0 1014.6 - 0.0
22/09:30pm 21.0 22.2 13.7 63 4.2 CALM 0 0 0 0 1014.3 1014.2 0.0
22/09:00pm 23.6 23.4 12.9 51 6.2 N 6 7 3 4 1014.0 1013.9 0.0
22/08:30pm 23.3 23.3 12.3 50 6.3 N 4 6 2 3 1013.7 1013.6 0.0
22/08:00pm 24.2 23.3 11.5 45 7.2 NE 7 9 4 5 1013.4 - 0.0
22/07:30pm 25.2 24.9 11.4 42 7.8 E 4 9 2 5 1012.9 1012.8 0.0
22/07:00pm 25.4 24.8 10.4 39 8.3 NE 4 6 2 3 1012.6 - 0.0
22/06:30pm 27.0 26.3 10.2 35 9.4 ENE 4 6 2 3 1012.4 1012.3 0.0
22/06:00pm 28.3 26.4 9.1 30 10.6 ENE 9 13 5 7 1012.4 1012.3 0.0
22/05:30pm 29.2 26.0 8.3 27 11.4 ENE 15 20 8 11 1012.2 1012.1 0.0
22/05:00pm 29.7 27.3 8.7 27 11.6 ENE 11 19 6 10 1012.0 - 0.0
22/04:30pm 30.2 26.7 8.6 26 12.0 ENE 17 24 9 13 1011.8 1011.7 0.0
22/04:00pm 30.1 27.8 9.1 27 11.7 NE 11 19 6 10 1011.8 - 0.0
22/03:30pm 30.9 26.7 7.4 23 12.8 E 19 30 10 16 1011.8 1011.7 0.0
22/03:00pm 31.2 26.6 5.6 20 13.6 ENE 19 30 10 16 1012.0 1011.9 0.0
22/02:30pm 31.6 26.9 5.9 20 13.7 ENE 20 33 11 18 1012.3 1012.2 0.0
22/02:00pm 31.4 26.7 7.8 23 13.0 E 22 35 12 19 1012.7 - 0.0
22/01:30pm 30.7 26.0 5.2 20 13.4 ENE 19 28 10 15 1013.3 1013.2 0.0
22/01:00pm 30.8 26.2 3.8 18 13.8 ENE 17 28 9 15 1013.8 - 0.0
22/12:30pm 30.5 24.3 1.9 16 14.1 ENE 24 39 13 21 1014.2 1014.1 0.0
22/12:00pm 31.0 24.0 -0.6 13 15.0 E 26 37 14 20 1014.8 1014.7 0.0
22/11:30am 30.5 24.6 1.9 16 14.1 E 22 35 12 19 1015.4 1015.3 0.0
22/11:00am 29.1 23.6 3.9 20 12.8 E 22 44 12 24 1015.9 - 0.0
22/10:30am 27.7 22.6 5.9 25 11.3 E 22 35 12 19 1016.4 1016.3 0.0
22/10:00am 27.0 22.9 8.0 30 10.2 E 19 28 10 15 1016.9 - 0.0
22/09:30am 25.6 23.4 12.1 43 7.7 E 15 24 8 13 1017.1 1017.0 0.0
22/09:00am 24.1 24.9 15.9 60 5.0 E 6 15 3 8 1017.0 1016.9 0.0
22/08:30am 22.0 24.1 16.3 70 3.4 CALM 0 0 0 0 1017.0 1016.9 0.0
22/08:00am 18.6 20.7 16.2 86 1.4 CALM 0 0 0 0 1016.9 - 0.0
22/07:30am 15.9 17.5 14.8 93 0.6 CALM 0 0 0 0 1016.5 1016.4 0.0
22/07:00am 15.4 16.6 13.9 91 0.8 CALM 0 0 0 0 1016.0 - 0.0
22/06:30am 16.1 17.7 14.8 92 0.7 CALM 0 0 0 0 1015.7 1015.6 0.0
22/06:00am 16.3 17.8 14.7 90 0.9 CALM 0 0 0 0 1015.5 1015.4 0.0
22/05:30am 17.3 19.2 15.8 91 0.9 CALM 0 0 0 0 1015.2 1015.1 0.0
22/05:00am 16.9 18.3 15.4 91 0.9 NNW 2 4 1 2 1015.0 - 0.0
22/04:30am 17.0 18.7 15.2 89 1.0 CALM 0 0 0 0 1014.9 1014.8 0.0
22/04:00am 17.2 18.9 15.2 88 1.2 CALM 0 0 0 0 1014.8 - 0.0
22/03:30am 17.5 18.9 15.3 87 1.3 NNW 2 4 1 2 1014.9 1014.8 0.0
22/03:00am 18.5 19.0 15.0 80 2.0 NNW 6 7 3 4 1015.1 1015.0 0.0
22/02:30am 19.2 20.6 15.3 78 2.3 NNE 2 7 1 4 1015.2 1015.1 0.0
22/02:00am 19.4 21.1 16.1 81 2.0 NNE 2 4 1 2 1015.2 - 0.0
22/01:30am 19.8 22.1 16.8 83 1.8 CALM 0 0 0 0 1015.3 1015.2 0.0
22/01:00am 19.8 21.4 15.9 78 2.3 NE 2 6 1 3 1015.4 - 0.0
22/12:30am 20.9 22.4 16.7 77 2.5 NE 4 6 2 3 1015.4 1015.3 0.0
22/12:00am 21.3 22.4 16.7 75 2.8 NE 6 6 3 3 1015.5 1015.4 0.0
 
Date/Time
CST
Temp
°C
App
Temp
°C
Dew
Point
Rel
Hum
%
Delta-T
°C
Wind Press
QNH
hPa
Press
MSL
hPa
Rain
since 9 am
mm
Dir
 
Spd
km/h
Gust
km/h
Spd
kts
Gust
kts
21/11:30pm 20.9 22.8 15.7 72 3.1 CALM 0 4 0 2 1015.6 1015.5 0.0
21/11:00pm 22.2 23.5 16.2 69 3.6 ENE 4 4 2 2 1015.8 - 0.0
21/10:30pm 23.1 24.0 16.2 65 4.2 NE 6 7 3 4 1015.9 1015.8 0.0
21/10:00pm 23.3 24.0 16.1 64 4.4 NE 7 9 4 5 1016.0 - 0.0
21/09:30pm 21.8 23.4 15.9 69 3.5 NNW 2 6 1 3 1015.9 1015.8 0.0
21/09:00pm 22.0 23.8 15.6 67 3.8 CALM 0 0 0 0 1015.8 1015.7 0.0
21/08:30pm 23.5 24.9 15.5 60 4.8 NNE 2 6 1 3 1015.5 1015.4 0.0
21/08:00pm 23.7 24.8 15.7 61 4.8 N 4 6 2 3 1015.0 - 0.0
21/07:30pm 24.8 25.2 15.4 56 5.7 NNE 7 9 4 5 1014.5 1014.4 0.0
21/07:00pm 26.1 25.6 14.9 50 6.7 N 11 19 6 10 1013.8 - 0.0
21/06:30pm 27.4 26.9 10.6 35 9.5 ENE 4 7 2 4 1013.1 1013.0 0.0
21/06:00pm 29.4 28.7 10.0 30 10.9 NE 4 9 2 5 1012.5 1012.4 0.0
21/05:30pm 31.1 29.5 8.8 25 12.4 ENE 7 11 4 6 1012.3 1012.2 0.0
21/05:00pm 31.8 30.0 8.1 23 13.1 NE 7 11 4 6 1012.1 - 0.0
21/04:30pm 32.2 30.0 7.8 22 13.5 ENE 9 19 5 10 1012.0 1011.9 0.0
21/04:00pm 32.9 30.5 7.0 20 14.1 SE 9 20 5 11 1012.1 - 0.0
21/03:30pm 32.7 29.9 6.8 20 14.1 ENE 11 24 6 13 1012.1 1012.0 0.0
21/03:00pm 32.0 29.2 7.0 21 13.6 ENE 11 17 6 9 1012.3 1012.2 0.0
21/02:30pm 32.1 29.7 7.0 21 13.7 ESE 9 17 5 9 1012.6 1012.5 0.0
21/02:00pm 31.3 28.5 7.1 22 13.1 E 11 20 6 11 1013.1 - 0.0
21/01:30pm 31.8 27.8 8.1 23 13.1 E 19 32 10 17 1013.5 1013.4 0.0
21/01:00pm 30.9 26.7 7.4 23 12.8 ESE 19 28 10 15 1014.0 - 0.0
21/12:30pm 30.6 27.9 8.9 26 12.1 ESE 13 22 7 12 1014.4 1014.3 0.0
21/12:00pm 29.9 28.3 11.4 32 10.7 E 11 20 6 11 1015.0 1014.9 0.0
21/11:30am 29.3 26.6 11.8 34 10.1 SE 17 26 9 14 1015.5 1015.4 0.0
21/11:00am 28.9 25.7 11.9 35 9.9 E 20 32 11 17 1015.9 - 0.0
21/10:30am 28.0 27.3 13.1 39 8.8 E 9 19 5 10 1016.1 1016.0 0.0
21/10:00am 26.1 27.0 15.2 51 6.6 NE 4 7 2 4 1016.3 - 0.0
21/09:30am 25.1 25.6 14.9 53 6.1 ENE 6 9 3 5 1016.5 1016.4 0.0
21/09:00am 24.6 25.8 15.0 55 5.7 E 2 7 1 4 1016.5 1016.4 0.0
21/08:30am 22.3 24.1 15.4 65 4.1 CALM 0 0 0 0 1016.4 1016.3 0.0
21/08:00am 19.5 21.3 15.6 78 2.3 CALM 0 0 0 0 1016.2 - 0.0
21/07:30am 16.6 18.2 14.8 89 1.0 CALM 0 0 0 0 1015.9 1015.8 0.0
21/07:00am 15.9 17.1 13.9 88 1.1 CALM 0 0 0 0 1015.6 - 0.0
21/06:30am 16.4 18.0 14.8 90 0.9 CALM 0 0 0 0 1015.4 1015.3 0.0
21/06:00am 16.9 18.6 15.1 89 1.0 CALM 0 0 0 0 1015.2 1015.1 0.0
21/05:30am 16.9 18.3 14.5 86 1.4 CALM 0 0 0 0 1015.0 1014.9 0.0
21/05:00am 17.7 19.3 15.0 84 1.6 CALM 0 0 0 0 1015.1 - 0.0
21/04:30am 18.8 20.6 15.5 81 1.9 CALM 0 0 0 0 1015.1 1015.0 0.0
21/04:00am 21.3 21.1 13.7 62 4.4 E 7 9 4 5 1015.0 - 0.0
21/03:30am 20.2 21.2 14.3 69 3.4 ENE 2 4 1 2 1015.0 1014.9 0.0
21/03:00am 21.8 22.6 14.7 64 4.2 E 4 7 2 4 1015.1 1015.0 0.0
21/02:30am 21.6 22.6 16.3 72 3.2 E 6 13 3 7 1015.2 1015.1 0.0
21/02:00am 20.0 21.9 16.8 82 1.9 ESE 2 4 1 2 1015.3 - 0.0
21/01:30am 21.6 23.2 17.8 79 2.4 ENE 6 9 3 5 1015.2 1015.1 0.0
21/01:00am 21.6 23.1 18.0 80 2.2 NE 7 11 4 6 1015.2 - 0.0
21/12:30am 20.4 22.0 16.8 80 2.2 NNE 4 4 2 2 1015.1 1015.0 0.0
21/12:00am 20.6 22.8 16.6 78 2.4 CALM 0 2 0 1 1015.1 1015.0 0.0
 
Date/Time
CST
Temp
°C
App
Temp
°C
Dew
Point
Rel
Hum
%
Delta-T
°C
Wind Press
QNH
hPa
Press
MSL
hPa
Rain
since 9 am
mm
Dir
 
Spd
km/h
Gust
km/h
Spd
kts
Gust
kts
20/11:30pm 20.6 22.7 16.2 76 2.6 CALM 0 0 0 0 1015.1 1015.0 0.0
20/11:00pm 21.6 23.2 17.0 75 2.8 NE 4 4 2 2 1015.1 - 0.0
20/10:30pm 21.8 24.0 16.5 72 3.2 CALM 0 0 0 0 1015.1 1015.0 0.0
20/10:00pm 22.7 23.8 16.5 68 3.8 NNE 6 7 3 4 1015.1 - 0.0
20/09:30pm 23.2 24.9 16.3 65 4.2 ENE 2 4 1 2 1014.9 1014.8 0.0

Other Formats:

Comma delimited format used in spreadsheet applications
http://www.bom.gov.au/fwo/IDD60801/IDD60801.94110.axf

JavaScript Object Notation format (JSON) in row-major order
http://www.bom.gov.au/fwo/IDD60801/IDD60801.94110.json